createdAt,value
2022-12-05T00:00:03.676Z,101867.03
2022-12-05T00:05:08.624Z,101874.16
2022-12-05T00:10:12.623Z,101873.66
2022-12-05T00:15:17.059Z,101868.72
2022-12-05T00:20:23.640Z,101866.13
2022-12-05T00:25:26.775Z,101869.75
2022-12-05T00:30:31.203Z,101867.44
2022-12-05T00:35:35.281Z,101861.84
2022-12-05T00:40:38.446Z,101867.16
2022-12-05T00:45:42.935Z,101862.22
2022-12-05T00:50:46.066Z,101855.47
2022-12-05T00:55:50.894Z,101843.94
2022-12-05T01:00:55.602Z,101846.50
2022-12-05T01:06:00.752Z,101841.06
2022-12-05T01:11:05.906Z,101842.47
2022-12-05T01:16:15.552Z,101856.13
2022-12-05T01:21:24.398Z,101850.38
2022-12-05T01:26:27.512Z,101868.06
2022-12-05T01:31:34.254Z,101856.63
2022-12-05T01:36:39.424Z,101867.25
2022-12-05T01:41:45.344Z,101869.84
2022-12-05T01:46:53.636Z,101876.22
2022-12-05T01:52:02.275Z,101882.22
2022-12-05T01:57:11.771Z,101870.25
2022-12-05T02:02:16.448Z,101862.19
2022-12-05T02:07:20.955Z,101866.84
2022-12-05T02:12:25.148Z,101879.44
2022-12-05T02:17:43.469Z,101875.97
2022-12-05T02:23:21.007Z,101878.63
2022-12-05T02:28:52.253Z,101879.81
2022-12-05T02:34:06.516Z,101872.16
2022-12-05T02:39:16.792Z,101878.75
2022-12-05T02:44:30.379Z,101873.53
2022-12-05T02:49:38.608Z,101875.13
2022-12-05T02:54:45.401Z,101878.63
2022-12-05T02:59:48.702Z,101886.78
2022-12-05T03:04:58.943Z,101877.41
2022-12-05T03:10:04.705Z,101894.19
2022-12-05T03:15:14.393Z,101885.88
2022-12-05T03:20:26.474Z,101887.59
2022-12-05T03:25:37.275Z,101885.75
2022-12-05T03:30:43.702Z,101885.09
2022-12-05T03:35:55.685Z,101889.13
2022-12-05T03:41:09.087Z,101895.09
2022-12-05T03:46:19.834Z,101889.38
2022-12-05T03:51:29.517Z,101889.28
2022-12-05T03:56:38.877Z,101897.97
2022-12-05T04:01:44.824Z,101903.19
2022-12-05T04:06:54.632Z,101895.53
2022-12-05T04:12:02.985Z,101905.78
2022-12-05T04:17:09.434Z,101908.38
2022-12-05T04:22:13.978Z,101906.44
2022-12-05T04:27:29.347Z,101906.69
2022-12-05T04:32:38.619Z,101902.41
2022-12-05T04:37:47.317Z,101904.88
2022-12-05T04:42:52.873Z,101904.75
2022-12-05T04:47:59.080Z,101906.44
2022-12-05T04:53:04.303Z,101914.50
2022-12-05T04:58:11.027Z,101914.38
2022-12-05T05:03:23.099Z,101907.63
2022-12-05T05:08:30.084Z,101905.13
2022-12-05T05:13:33.062Z,101898.38
2022-12-05T05:18:36.290Z,101907.72
2022-12-05T05:23:40.702Z,101902.00
2022-12-05T05:28:44.228Z,101903.59
2022-12-05T05:33:50.549Z,101927.19
2022-12-05T05:38:57.849Z,101925.50
2022-12-05T05:44:01.919Z,101926.94
2022-12-05T05:49:05.759Z,101926.03
2022-12-05T05:54:10.673Z,101921.06
2022-12-05T05:59:13.901Z,101925.91
2022-12-05T06:04:16.964Z,101926.03
2022-12-05T06:09:23.177Z,101931.72
2022-12-05T06:14:26.242Z,101928.22
2022-12-05T06:19:29.288Z,101928.97
2022-12-05T06:24:33.973Z,101930.16
2022-12-05T06:29:37.616Z,101925.50
2022-12-05T06:34:41.019Z,101928.56
2022-12-05T06:39:45.375Z,101924.84
2022-12-05T06:44:48.526Z,101936.63
2022-12-05T06:49:52.602Z,101937.69
2022-12-05T06:54:57.104Z,101943.53
2022-12-05T07:00:22.386Z,101948.97
2022-12-05T07:05:25.589Z,101954.16
2022-12-05T07:10:30.123Z,101967.56
2022-12-05T07:15:33.202Z,101956.91
2022-12-05T07:21:03.950Z,101973.28
2022-12-05T07:26:01.133Z,101961.03
2022-12-05T07:31:06.171Z,101970.78
2022-12-05T07:36:11.817Z,101968.06
2022-12-05T07:41:21.216Z,101982.09
2022-12-05T07:46:25.289Z,101987.56
2022-12-05T07:51:28.369Z,101991.19
2022-12-05T07:56:32.728Z,101997.28
2022-12-05T08:01:36.752Z,101994.94
2022-12-05T08:06:39.925Z,101994.03
2022-12-05T08:11:48.170Z,102000.41
2022-12-05T08:16:54.224Z,101984.66
2022-12-05T08:21:57.346Z,101992.72
2022-12-05T08:27:02.049Z,102002.84
2022-12-05T08:32:05.451Z,102003.72
2022-12-05T08:37:08.476Z,102013.72
2022-12-05T08:42:12.931Z,102016.56
2022-12-05T08:47:15.982Z,102015.16
2022-12-05T08:52:18.929Z,102015.66
2022-12-05T08:57:23.677Z,102016.56
2022-12-05T09:02:27.046Z,102020.19
2022-12-05T09:07:30.217Z,102026.00
2022-12-05T09:12:36.803Z,102027.16
2022-12-05T09:17:40.813Z,102035.34
2022-12-05T09:22:44.049Z,102025.19
2022-12-05T09:27:48.711Z,102044.03
2022-12-05T09:32:54.000Z,102043.38
2022-12-05T09:37:57.245Z,102049.94
2022-12-05T09:43:07.293Z,102054.13
2022-12-05T09:48:14.073Z,102048.25
2022-12-05T09:53:27.410Z,102058.56
2022-12-05T09:58:42.669Z,102060.91
2022-12-05T10:03:56.280Z,102062.06
2022-12-05T10:09:31.860Z,102053.47
2022-12-05T10:14:48.744Z,102055.13
2022-12-05T10:19:57.520Z,102054.47
2022-12-05T10:25:04.251Z,102055.06
2022-12-05T10:30:18.057Z,102063.34
2022-12-05T10:35:27.331Z,102057.59
2022-12-05T10:40:35.888Z,102053.88
2022-12-05T10:45:44.482Z,102053.25
2022-12-05T10:50:50.533Z,102054.13
2022-12-05T10:56:28.711Z,102053.84
2022-12-05T11:01:19.638Z,102048.31
2022-12-05T11:06:27.790Z,102051.38
2022-12-05T11:11:33.753Z,102033.50
2022-12-05T11:16:40.165Z,102037.59
2022-12-05T11:21:44.386Z,102039.38
2022-12-05T11:26:47.535Z,102044.16
2022-12-05T11:31:53.576Z,102049.03
2022-12-05T11:37:01.861Z,102046.31
2022-12-05T11:42:27.922Z,102046.97
2022-12-05T11:47:48.168Z,102038.56
2022-12-05T11:53:08.883Z,102042.59
2022-12-05T11:58:25.625Z,102050.13
2022-12-05T12:04:02.102Z,102049.78
2022-12-05T12:09:25.779Z,102049.78
2022-12-05T12:14:42.866Z,102040.16
2022-12-05T12:20:19.766Z,102040.72
2022-12-05T12:25:31.387Z,102041.75
2022-12-05T12:30:49.034Z,102042.78
2022-12-05T12:36:05.093Z,102032.84
2022-12-05T12:41:17.702Z,102029.81
2022-12-05T12:46:36.289Z,102027.78
2022-12-05T12:51:55.713Z,102030.47
2022-12-05T12:57:13.357Z,102024.38
2022-12-05T13:02:25.634Z,102027.09
2022-12-05T13:07:34.097Z,102037.19
2022-12-05T13:12:41.019Z,102023.09
2022-12-05T13:17:46.778Z,102020.94
2022-12-05T13:22:53.160Z,102020.16
2022-12-05T13:27:58.781Z,102021.41
2022-12-05T13:33:08.511Z,102019.63
2022-12-05T13:38:39.354Z,102013.59
2022-12-05T13:43:47.496Z,102024.25
2022-12-05T13:49:06.770Z,102017.34
2022-12-05T13:54:16.241Z,102010.53
2022-12-05T13:59:56.505Z,102009.09
2022-12-05T14:05:00.885Z,102018.94
2022-12-05T14:10:07.556Z,102016.00
2022-12-05T14:15:32.885Z,102027.00
2022-12-05T14:21:02.584Z,102027.63
2022-12-05T14:26:21.070Z,102033.78
2022-12-05T14:31:45.765Z,102036.13
2022-12-05T14:36:57.978Z,102022.75
2022-12-05T14:42:06.954Z,102035.91
2022-12-05T14:47:23.596Z,102041.56
2022-12-05T14:52:29.899Z,102049.25
2022-12-05T14:57:45.326Z,102050.84
2022-12-05T15:02:49.862Z,102050.97
2022-12-05T15:07:59.032Z,102055.25
2022-12-05T15:13:14.849Z,102055.94
2022-12-05T15:18:26.417Z,102056.75
2022-12-05T15:23:44.062Z,102058.97
2022-12-05T15:29:07.772Z,102060.66
2022-12-05T15:34:23.017Z,102065.53
2022-12-05T15:39:29.200Z,102068.13
2022-12-05T15:44:37.996Z,102065.53
2022-12-05T15:49:44.032Z,102071.50
2022-12-05T15:54:49.791Z,102068.13
2022-12-05T16:00:02.760Z,102073.09
2022-12-05T16:05:26.207Z,102060.50
2022-12-05T16:10:31.500Z,102062.44
2022-12-05T16:15:38.399Z,102064.25
2022-12-05T16:20:41.654Z,102062.19
2022-12-05T16:25:44.786Z,102068.66
2022-12-05T16:30:58.172Z,102071.28
2022-12-05T16:36:09.753Z,102069.72
2022-12-05T16:41:16.257Z,102078.44
2022-12-05T16:46:48.700Z,102078.56
2022-12-05T16:51:59.639Z,102090.00
2022-12-05T16:57:03.643Z,102091.81
2022-12-05T17:02:13.465Z,102090.13
2022-12-05T17:07:16.800Z,102090.22
2022-12-05T17:12:26.070Z,102090.91
2022-12-05T17:17:30.601Z,102091.81
2022-12-05T17:22:33.765Z,102092.25
2022-12-05T17:27:36.741Z,102091.34
2022-12-05T17:32:41.374Z,102091.56
2022-12-05T17:37:44.881Z,102099.38
2022-12-05T17:42:48.830Z,102095.09
2022-12-05T17:47:53.607Z,102101.09
2022-12-05T17:52:59.676Z,102102.66
2022-12-05T17:58:06.172Z,102095.53
2022-12-05T18:03:14.100Z,102102.53
2022-12-05T18:08:18.168Z,102102.53
2022-12-05T18:13:21.258Z,102107.63
2022-12-05T18:18:27.470Z,102115.69
2022-12-05T18:23:32.157Z,102119.06
2022-12-05T18:28:37.104Z,102112.59
2022-12-05T18:33:41.730Z,102113.88
2022-12-05T18:38:50.625Z,102120.91
2022-12-05T18:43:54.416Z,102124.53
2022-12-05T18:49:03.310Z,102128.31
2022-12-05T18:54:07.351Z,102129.88
2022-12-05T18:59:15.248Z,102130.00
2022-12-05T19:04:22.536Z,102131.44
2022-12-05T19:09:29.319Z,102136.88
2022-12-05T19:14:33.324Z,102141.84
2022-12-05T19:19:39.724Z,102138.22
2022-12-05T19:24:42.887Z,102159.75
2022-12-05T19:29:46.333Z,102161.56
2022-12-05T19:34:51.659Z,102162.34
2022-12-05T19:39:54.728Z,102157.25
2022-12-05T19:44:58.643Z,102157.13
2022-12-05T19:50:06.110Z,102153.63
2022-12-05T19:55:09.984Z,102161.69
2022-12-05T20:00:17.005Z,102161.56
2022-12-05T20:05:24.162Z,102162.59
2022-12-05T20:10:27.159Z,102169.63
2022-12-05T20:15:30.411Z,102162.47
2022-12-05T20:20:34.804Z,102166.13
2022-12-05T20:25:38.261Z,102167.13
2022-12-05T20:30:41.573Z,102165.44
2022-12-05T20:35:46.050Z,102161.94
2022-12-05T20:40:49.166Z,102168.31
2022-12-05T20:45:52.217Z,102170.91
2022-12-05T20:50:56.791Z,102158.66
2022-12-05T20:56:03.990Z,102163.88
2022-12-05T21:01:09.250Z,102161.16
2022-12-05T21:06:15.882Z,102157.63
2022-12-05T21:11:19.208Z,102165.56
2022-12-05T21:16:25.333Z,102161.16
2022-12-05T21:21:32.072Z,102162.16
2022-12-05T21:26:36.610Z,102160.34
2022-12-05T21:31:42.354Z,102149.16
2022-12-05T21:36:47.948Z,102155.94
2022-12-05T21:41:54.138Z,102154.22
2022-12-05T21:46:57.443Z,102157.75
2022-12-05T21:52:01.967Z,102159.31
2022-12-05T21:57:05.403Z,102165.19
2022-12-05T22:02:08.625Z,102170.53
2022-12-05T22:07:13.179Z,102163.63
2022-12-05T22:12:16.282Z,102161.16
2022-12-05T22:17:19.305Z,102174.53
2022-12-05T22:22:23.759Z,102164.09
2022-12-05T22:27:27.163Z,102166.72
2022-12-05T22:32:30.211Z,102171.81
2022-12-05T22:37:34.545Z,102178.59
2022-12-05T22:42:37.513Z,102169.75
2022-12-05T22:47:40.584Z,102174.72
2022-12-05T22:52:44.955Z,102173.13
2022-12-05T22:57:50.600Z,102170.53
2022-12-05T23:02:54.195Z,102175.47
2022-12-05T23:07:58.941Z,102169.38
2022-12-05T23:13:02.617Z,102172.09
2022-12-05T23:18:06.096Z,102166.88
2022-12-05T23:23:10.951Z,102165.88
2022-12-05T23:28:14.479Z,102158.56
2022-12-05T23:33:17.859Z,102158.81
2022-12-05T23:38:25.485Z,102156.78
2022-12-05T23:43:30.152Z,102155.19
2022-12-05T23:48:34.014Z,102150.00
2022-12-05T23:53:40.822Z,102153.38
2022-12-05T23:58:44.646Z,102151.44
